createdAt,value
2023-03-29T00:01:00.954Z,100512.16
2023-03-29T00:03:30.914Z,100517.25
2023-03-29T00:06:05.785Z,100521.50
2023-03-29T00:08:35.387Z,100518.06
2023-03-29T00:11:03.674Z,100512.91
2023-03-29T00:13:32.239Z,100508.59
2023-03-29T00:16:00.668Z,100516.34
2023-03-29T00:18:28.982Z,100511.16
2023-03-29T00:20:57.570Z,100506.84
2023-03-29T00:23:28.279Z,100507.69
2023-03-29T00:25:56.962Z,100508.53
2023-03-29T00:28:25.568Z,100516.28
2023-03-29T00:30:53.808Z,100509.38
2023-03-29T00:33:23.996Z,100504.22
2023-03-29T00:35:56.051Z,100505.06
2023-03-29T00:38:24.242Z,100510.22
2023-03-29T00:40:54.024Z,100505.03
2023-03-29T00:43:23.160Z,100497.25
2023-03-29T00:45:51.419Z,100497.31
2023-03-29T00:48:23.874Z,100494.72
2023-03-29T00:50:55.523Z,100483.56
2023-03-29T00:53:29.015Z,100477.56
2023-03-29T00:56:04.714Z,100475.84
2023-03-29T00:58:39.387Z,100465.50
2023-03-29T01:01:10.994Z,100464.63
2023-03-29T01:03:47.377Z,100460.34
2023-03-29T01:06:19.421Z,100457.75
2023-03-29T01:08:52.302Z,100461.19
2023-03-29T01:11:26.790Z,100462.91
2023-03-29T01:14:00.348Z,100458.63
2023-03-29T01:16:30.507Z,100462.09
2023-03-29T01:18:59.508Z,100465.56
2023-03-29T01:21:32.455Z,100460.41
2023-03-29T01:24:32.395Z,100471.50
2023-03-29T01:27:10.054Z,100466.28
2023-03-29T01:29:43.257Z,100475.69
2023-03-29T01:32:15.838Z,100469.63
2023-03-29T01:34:49.838Z,100471.25
2023-03-29T01:37:24.926Z,100472.03
2023-03-29T01:39:54.127Z,100468.53
2023-03-29T01:42:37.644Z,100451.19
2023-03-29T01:45:15.252Z,100454.59
2023-03-29T01:47:48.895Z,100439.06
2023-03-29T01:50:21.185Z,100431.31
2023-03-29T01:52:56.516Z,100427.00
2023-03-29T01:55:28.675Z,100423.50
2023-03-29T01:57:59.727Z,100430.28
2023-03-29T02:00:30.731Z,100435.44
2023-03-29T02:03:04.704Z,100436.25
2023-03-29T02:05:33.539Z,100425.88
2023-03-29T02:08:07.294Z,100418.91
2023-03-29T02:10:38.028Z,100418.84
2023-03-29T02:13:07.258Z,100405.81
2023-03-29T02:15:39.943Z,100405.72
2023-03-29T02:18:08.446Z,100402.25
2023-03-29T02:20:40.819Z,100403.91
2023-03-29T02:23:18.249Z,100398.66
2023-03-29T02:25:47.506Z,100392.63
2023-03-29T02:28:15.981Z,100388.38
2023-03-29T02:30:53.628Z,100378.91
2023-03-29T02:33:26.454Z,100372.03
2023-03-29T02:35:58.902Z,100381.47
2023-03-29T02:38:28.641Z,100379.81
2023-03-29T02:40:59.394Z,100363.47
2023-03-29T02:43:30.375Z,100348.09
2023-03-29T02:46:00.541Z,100352.41
2023-03-29T02:48:29.548Z,100352.53
2023-03-29T02:51:02.805Z,100349.13
2023-03-29T02:53:38.125Z,100345.78
2023-03-29T02:56:07.487Z,100342.38
2023-03-29T02:58:36.785Z,100344.16
2023-03-29T03:01:07.830Z,100341.66
2023-03-29T03:03:36.103Z,100320.28
2023-03-29T03:06:04.998Z,100318.56
2023-03-29T03:08:33.356Z,100323.75
2023-03-29T03:11:02.224Z,100323.75
2023-03-29T03:13:30.973Z,100313.44
2023-03-29T03:15:59.078Z,100298.00
2023-03-29T03:18:28.936Z,100296.28
2023-03-29T03:20:57.989Z,100297.16
2023-03-29T03:23:27.695Z,100285.16
2023-03-29T03:25:56.748Z,100289.50
2023-03-29T03:28:25.475Z,100280.91
2023-03-29T03:30:54.288Z,100249.16
2023-03-29T03:33:22.736Z,100232.84
2023-03-29T03:35:52.816Z,100262.03
2023-03-29T03:38:21.093Z,100253.44
2023-03-29T03:40:55.966Z,100269.75
2023-03-29T03:43:24.560Z,100283.50
2023-03-29T03:45:53.078Z,100275.72
2023-03-29T03:48:21.632Z,100272.28
2023-03-29T03:50:52.879Z,100282.53
2023-03-29T03:53:21.697Z,100282.53
2023-03-29T03:55:50.444Z,100286.91
2023-03-29T03:58:18.939Z,100289.56
2023-03-29T04:00:50.389Z,100292.22
2023-03-29T04:03:19.367Z,100289.72
2023-03-29T04:05:48.875Z,100299.19
2023-03-29T04:08:18.505Z,100276.03
2023-03-29T04:10:53.530Z,100262.31
2023-03-29T04:13:21.910Z,100252.84
2023-03-29T04:15:54.355Z,100237.31
2023-03-29T04:18:23.060Z,100225.22
2023-03-29T04:20:51.770Z,100225.22
2023-03-29T04:23:22.133Z,100230.41
2023-03-29T04:25:50.316Z,100208.94
2023-03-29T04:28:18.389Z,100205.53
2023-03-29T04:30:47.350Z,100224.47
2023-03-29T04:33:15.483Z,100215.88
2023-03-29T04:35:46.343Z,100213.34
2023-03-29T04:38:14.566Z,100221.06
2023-03-29T04:40:44.476Z,100212.47
2023-03-29T04:43:12.760Z,100219.31
2023-03-29T04:45:40.933Z,100210.69
2023-03-29T04:48:09.179Z,100203.75
2023-03-29T04:50:37.788Z,100185.63
2023-03-29T04:53:06.096Z,100192.47
2023-03-29T04:55:34.155Z,100188.97
2023-03-29T04:58:04.980Z,100192.34
2023-03-29T05:00:33.506Z,100191.47
2023-03-29T05:03:01.648Z,100194.06
2023-03-29T05:05:29.893Z,100194.91
2023-03-29T05:07:59.092Z,100194.97
2023-03-29T05:10:27.295Z,100184.66
2023-03-29T05:12:56.302Z,100172.59
2023-03-29T05:15:25.934Z,100176.06
2023-03-29T05:17:54.491Z,100176.00
2023-03-29T05:20:22.902Z,100178.56
2023-03-29T05:22:51.052Z,100159.66
2023-03-29T05:25:19.745Z,100161.34
2023-03-29T05:27:48.148Z,100151.03
2023-03-29T05:30:16.938Z,100146.72
2023-03-29T05:32:47.067Z,100151.88
2023-03-29T05:35:15.496Z,100155.31
2023-03-29T05:37:43.659Z,100146.72
2023-03-29T05:40:13.503Z,100145.00
2023-03-29T05:42:41.932Z,100134.69
2023-03-29T05:45:11.741Z,100138.09
2023-03-29T05:47:39.925Z,100126.06
2023-03-29T05:50:11.302Z,100120.06
2023-03-29T05:52:41.141Z,100103.75
2023-03-29T05:55:10.478Z,100108.91
2023-03-29T05:57:38.922Z,100115.75
2023-03-29T06:00:19.725Z,100115.75
2023-03-29T06:02:47.938Z,100110.59
2023-03-29T06:05:18.352Z,100124.34
2023-03-29T06:07:48.891Z,100133.81
2023-03-29T06:10:18.107Z,100126.91
2023-03-29T06:12:47.012Z,100138.09
2023-03-29T06:15:16.313Z,100125.22
2023-03-29T06:17:46.589Z,100123.53
2023-03-29T06:20:15.584Z,100115.84
2023-03-29T06:22:46.813Z,100106.44
2023-03-29T06:25:17.757Z,100109.00
2023-03-29T06:27:46.801Z,100110.75
2023-03-29T06:30:15.799Z,100109.06
2023-03-29T06:32:44.363Z,100097.06
2023-03-29T06:35:13.114Z,100092.81
2023-03-29T06:37:49.866Z,100084.25
2023-03-29T06:40:21.397Z,100089.41
2023-03-29T06:42:51.059Z,100070.53
2023-03-29T06:45:21.208Z,100074.00
2023-03-29T06:47:50.933Z,100073.16
2023-03-29T06:50:19.772Z,100066.28
2023-03-29T06:52:48.691Z,100065.44
2023-03-29T06:55:17.925Z,100064.56
2023-03-29T06:57:48.084Z,100061.97
2023-03-29T07:00:19.213Z,100060.28
2023-03-29T07:02:47.975Z,100041.34
2023-03-29T07:05:16.774Z,100031.03
2023-03-29T07:07:57.093Z,100028.47
2023-03-29T07:10:32.484Z,100033.63
2023-03-29T07:13:02.718Z,100028.44
2023-03-29T07:15:31.073Z,100025.84
2023-03-29T07:17:59.413Z,100015.56
2023-03-29T07:20:28.401Z,100006.13
2023-03-29T07:22:57.989Z,99992.41
2023-03-29T07:25:27.633Z,99993.25
2023-03-29T07:27:55.938Z,100002.69
2023-03-29T07:30:31.632Z,100005.22
2023-03-29T07:33:01.024Z,100000.03
2023-03-29T07:35:30.869Z,99999.16
2023-03-29T07:37:59.263Z,100009.38
2023-03-29T07:40:30.620Z,99988.72
2023-03-29T07:42:59.857Z,100003.34
2023-03-29T07:45:29.986Z,99992.22
2023-03-29T07:47:58.886Z,99990.56
2023-03-29T07:50:27.650Z,99974.28
2023-03-29T07:52:57.031Z,99958.84
2023-03-29T07:55:25.362Z,99961.47
2023-03-29T07:57:53.756Z,99962.34
2023-03-29T08:00:25.412Z,99953.78
2023-03-29T08:02:55.952Z,99959.81
2023-03-29T08:05:37.974Z,99951.25
2023-03-29T08:08:10.793Z,99956.44
2023-03-29T08:10:39.878Z,99942.69
2023-03-29T08:13:09.430Z,99950.41
2023-03-29T08:15:39.620Z,99937.53
2023-03-29T08:18:09.332Z,99925.53
2023-03-29T08:20:37.756Z,99925.53
2023-03-29T08:23:06.675Z,99929.84
2023-03-29T08:25:38.365Z,99920.34
2023-03-29T08:28:06.472Z,99916.94
2023-03-29T08:30:34.668Z,99908.34
2023-03-29T08:33:02.815Z,99893.75
2023-03-29T08:35:32.362Z,99890.34
2023-03-29T08:38:00.832Z,99891.22
2023-03-29T08:40:31.266Z,99871.44
2023-03-29T08:43:19.902Z,99871.47
2023-03-29T08:46:00.135Z,99874.03
2023-03-29T08:48:32.521Z,99878.38
2023-03-29T08:51:09.934Z,99880.97
2023-03-29T08:53:45.164Z,99868.03
2023-03-29T08:56:16.384Z,99880.09
2023-03-29T08:58:46.760Z,99879.22
2023-03-29T09:01:15.197Z,99864.59
2023-03-29T09:03:48.650Z,99864.56
2023-03-29T09:06:23.248Z,99864.56
2023-03-29T09:08:53.445Z,99854.25
2023-03-29T09:11:36.971Z,99842.19
2023-03-29T09:14:25.185Z,99831.84
2023-03-29T09:17:02.604Z,99827.56
2023-03-29T09:19:40.085Z,99822.41
2023-03-29T09:22:17.380Z,99818.09
2023-03-29T09:24:58.991Z,99818.97
2023-03-29T09:27:31.454Z,99816.41
2023-03-29T09:30:13.770Z,99812.09
2023-03-29T09:32:53.277Z,99799.19
2023-03-29T09:35:24.688Z,99801.78
2023-03-29T09:37:55.620Z,99777.66
2023-03-29T09:40:28.590Z,99798.34
2023-03-29T09:42:58.608Z,99799.19
2023-03-29T09:45:26.759Z,99794.03
2023-03-29T09:47:58.728Z,99785.44
2023-03-29T09:50:34.218Z,99776.81
2023-03-29T09:53:05.121Z,99767.34
2023-03-29T09:55:36.648Z,99757.88
2023-03-29T09:58:14.493Z,99738.09
2023-03-29T10:00:43.338Z,99719.19
2023-03-29T10:03:11.511Z,99720.91
2023-03-29T10:05:40.196Z,99725.22
2023-03-29T10:08:20.434Z,99700.25
2023-03-29T10:10:51.259Z,99705.44
2023-03-29T10:13:24.488Z,99705.41
2023-03-29T10:16:25.308Z,99693.38
2023-03-29T10:19:10.638Z,99689.94
2023-03-29T10:21:45.655Z,99662.38
2023-03-29T10:24:23.658Z,99695.09
2023-03-29T10:26:56.201Z,99689.06
2023-03-29T10:29:37.708Z,99693.34
2023-03-29T10:32:29.852Z,99686.47
2023-03-29T10:35:09.700Z,99682.13
2023-03-29T10:37:45.172Z,99669.25
2023-03-29T10:40:35.140Z,99674.41
2023-03-29T10:43:14.772Z,99670.97
2023-03-29T10:45:43.931Z,99674.38
2023-03-29T10:48:16.154Z,99665.75
2023-03-29T10:50:53.544Z,99661.44
2023-03-29T10:53:28.029Z,99657.13
2023-03-29T10:56:10.444Z,99662.31
2023-03-29T10:58:58.198Z,99654.56
2023-03-29T11:01:34.916Z,99658.03
2023-03-29T11:04:16.140Z,99656.31
2023-03-29T11:06:50.405Z,99637.38
2023-03-29T11:09:29.780Z,99636.53
2023-03-29T11:12:16.233Z,99644.25
2023-03-29T11:15:00.632Z,99645.06
2023-03-29T11:17:43.316Z,99638.09
2023-03-29T11:20:25.585Z,99630.25
2023-03-29T11:23:01.565Z,99638.84
2023-03-29T11:25:42.240Z,99635.41
2023-03-29T11:28:28.782Z,99643.97
2023-03-29T11:31:07.031Z,99636.91
2023-03-29T11:33:53.794Z,99635.88
2023-03-29T11:36:33.274Z,99618.16
2023-03-29T11:39:09.714Z,99620.94
2023-03-29T11:41:41.944Z,99626.81
2023-03-29T11:44:19.003Z,99629.16
2023-03-29T11:46:51.874Z,99629.75
2023-03-29T11:49:24.628Z,99621.38
2023-03-29T11:51:58.111Z,99608.41
2023-03-29T11:54:31.885Z,99609.03
2023-03-29T11:57:06.077Z,99596.69
2023-03-29T11:59:41.813Z,99585.59
2023-03-29T12:02:17.917Z,99585.66
2023-03-29T12:04:57.601Z,99587.81
2023-03-29T12:07:31.400Z,99588.41
2023-03-29T12:10:04.256Z,99576.00
2023-03-29T12:12:43.962Z,99579.13
2023-03-29T12:15:20.540Z,99575.91
2023-03-29T12:17:59.481Z,99574.72
2023-03-29T12:20:31.828Z,99565.03
2023-03-29T12:23:00.818Z,99558.81
2023-03-29T12:25:35.890Z,99558.03
2023-03-29T12:28:19.448Z,99566.41
2023-03-29T12:30:57.353Z,99570.59
2023-03-29T12:33:47.408Z,99562.22
2023-03-29T12:36:31.227Z,99564.44
2023-03-29T12:38:59.826Z,99581.72
2023-03-29T12:41:29.730Z,99574.19
2023-03-29T12:44:10.238Z,99567.19
2023-03-29T12:46:42.683Z,99554.44
2023-03-29T12:49:20.487Z,99569.75
2023-03-29T12:51:49.918Z,99554.41
2023-03-29T12:54:24.976Z,99556.78
2023-03-29T12:57:00.547Z,99549.22
2023-03-29T12:59:38.588Z,99541.19
2023-03-29T13:05:21.199Z,99519.59
2023-03-29T13:07:49.809Z,99536.94
2023-03-29T13:10:45.295Z,99513.47
2023-03-29T13:13:18.875Z,99508.72
2023-03-29T13:15:47.483Z,99509.34
2023-03-29T13:18:32.365Z,99516.06
2023-03-29T13:21:09.480Z,99504.75
2023-03-29T13:23:50.190Z,99513.25
2023-03-29T13:26:32.332Z,99495.66
2023-03-29T13:29:18.440Z,99508.38
2023-03-29T13:31:52.897Z,99497.88
2023-03-29T13:34:32.318Z,99494.06
2023-03-29T13:37:11.108Z,99510.47
2023-03-29T13:39:50.214Z,99510.75
2023-03-29T13:42:21.854Z,99506.16
2023-03-29T13:44:50.502Z,99493.16
2023-03-29T13:47:48.982Z,99502.50
2023-03-29T13:50:37.021Z,99514.66
2023-03-29T13:53:13.890Z,99494.50
2023-03-29T13:55:48.834Z,99479.53
2023-03-29T13:58:31.713Z,99474.88
2023-03-29T14:01:11.231Z,99469.88
2023-03-29T14:03:44.916Z,99459.03
2023-03-29T14:06:16.935Z,99469.09
2023-03-29T14:08:51.313Z,99471.06
2023-03-29T14:11:26.738Z,99470.00
2023-03-29T14:13:58.796Z,99478.09
2023-03-29T14:16:29.554Z,99470.13
2023-03-29T14:19:00.459Z,99463.66
2023-03-29T14:21:28.569Z,99468.13
2023-03-29T14:24:01.684Z,99459.78
2023-03-29T14:26:32.610Z,99455.59
2023-03-29T14:29:02.595Z,99457.44
2023-03-29T14:31:34.397Z,99455.63
2023-03-29T14:34:05.778Z,99450.72
2023-03-29T14:36:35.218Z,99451.25
2023-03-29T14:39:09.630Z,99458.31
2023-03-29T14:41:39.435Z,99453.81
2023-03-29T14:44:09.203Z,99454.78
2023-03-29T14:46:38.182Z,99459.00
2023-03-29T14:49:07.506Z,99444.97
2023-03-29T14:51:37.068Z,99436.97
2023-03-29T14:54:07.749Z,99435.38
2023-03-29T14:56:36.224Z,99420.03
2023-03-29T14:59:05.939Z,99423.84
2023-03-29T15:01:34.130Z,99426.47
2023-03-29T15:04:06.309Z,99427.88
2023-03-29T15:06:39.980Z,99438.72
2023-03-29T15:09:14.246Z,99434.63
2023-03-29T15:11:42.420Z,99432.75
2023-03-29T15:14:17.221Z,99437.84
2023-03-29T15:16:48.382Z,99437.16
2023-03-29T15:19:19.696Z,99434.41
2023-03-29T15:21:50.422Z,99426.31
2023-03-29T15:24:25.210Z,99417.19
2023-03-29T15:27:03.115Z,99411.97
2023-03-29T15:29:42.131Z,99411.53
2023-03-29T15:32:11.124Z,99400.59
2023-03-29T15:34:39.590Z,99411.28
2023-03-29T15:37:08.207Z,99404.63
2023-03-29T15:39:44.066Z,99406.66
2023-03-29T15:42:12.871Z,99404.63
2023-03-29T15:44:41.413Z,99407.31
2023-03-29T15:47:10.995Z,99402.94
2023-03-29T15:49:39.215Z,99420.03
2023-03-29T15:52:07.538Z,99423.75
2023-03-29T15:54:38.038Z,99413.72
2023-03-29T15:57:09.515Z,99405.63
2023-03-29T15:59:37.808Z,99408.66
2023-03-29T16:02:07.978Z,99404.75
2023-03-29T16:04:36.003Z,99405.13
2023-03-29T16:07:08.330Z,99405.63
2023-03-29T16:09:38.482Z,99400.00
2023-03-29T16:12:06.963Z,99400.16
2023-03-29T16:14:35.462Z,99393.41
2023-03-29T16:17:04.009Z,99397.09
2023-03-29T16:19:33.254Z,99401.88
2023-03-29T16:22:07.617Z,99395.91
2023-03-29T16:24:41.665Z,99398.22
2023-03-29T16:27:09.966Z,99392.72
2023-03-29T16:29:39.355Z,99382.56
2023-03-29T16:32:07.690Z,99380.19
2023-03-29T16:34:39.177Z,99374.09
2023-03-29T16:37:07.721Z,99366.47
2023-03-29T16:39:37.945Z,99361.75
2023-03-29T16:42:06.411Z,99369.38
2023-03-29T16:44:34.511Z,99364.53
2023-03-29T16:47:02.927Z,99363.84
2023-03-29T16:49:30.985Z,99374.00
2023-03-29T16:52:00.135Z,99365.16
2023-03-29T16:54:29.780Z,99364.31
2023-03-29T16:56:59.435Z,99366.44
2023-03-29T16:59:27.843Z,99359.25
2023-03-29T17:01:56.042Z,99367.75
2023-03-29T17:04:24.332Z,99363.47
2023-03-29T17:06:53.697Z,99361.63
2023-03-29T17:09:21.961Z,99357.16
2023-03-29T17:11:50.345Z,99365.25
2023-03-29T17:14:19.953Z,99361.00
2023-03-29T17:16:48.282Z,99370.06
2023-03-29T17:19:16.420Z,99372.72
2023-03-29T17:21:45.015Z,99368.94
2023-03-29T17:24:13.082Z,99349.72
2023-03-29T17:26:43.240Z,99356.63
2023-03-29T17:29:12.654Z,99351.59
2023-03-29T17:31:47.797Z,99351.78
2023-03-29T17:34:16.637Z,99353.72
2023-03-29T17:36:45.834Z,99344.47
2023-03-29T17:39:15.423Z,99345.63
2023-03-29T17:41:46.121Z,99344.19
2023-03-29T17:44:14.786Z,99356.41
2023-03-29T17:46:44.460Z,99347.97
2023-03-29T17:49:13.207Z,99355.88
2023-03-29T17:51:41.441Z,99362.06
2023-03-29T17:54:09.699Z,99366.59
2023-03-29T17:56:37.918Z,99369.50
2023-03-29T17:59:06.204Z,99376.53
2023-03-29T18:01:36.400Z,99366.19
2023-03-29T18:04:08.316Z,99377.53
2023-03-29T18:06:36.580Z,99374.34
2023-03-29T18:09:05.740Z,99384.91
2023-03-29T18:11:33.908Z,99382.28
2023-03-29T18:14:02.233Z,99378.78
2023-03-29T18:16:30.707Z,99377.13
2023-03-29T18:18:58.861Z,99376.53
2023-03-29T18:21:28.707Z,99377.50
2023-03-29T18:23:57.175Z,99376.78
2023-03-29T18:26:25.889Z,99376.09
2023-03-29T18:28:54.523Z,99368.53
2023-03-29T18:31:22.730Z,99365.22
2023-03-29T18:33:51.175Z,99362.88
2023-03-29T18:36:19.421Z,99356.13
2023-03-29T18:38:49.226Z,99358.78
2023-03-29T18:41:17.391Z,99353.72
2023-03-29T18:43:46.981Z,99347.81
2023-03-29T18:46:15.212Z,99351.41
2023-03-29T18:48:43.606Z,99352.41
2023-03-29T18:51:13.519Z,99368.06
2023-03-29T18:53:44.395Z,99360.41
2023-03-29T18:56:14.201Z,99369.13
2023-03-29T18:58:42.271Z,99367.44
2023-03-29T19:01:11.065Z,99370.13
2023-03-29T19:03:39.678Z,99371.03
2023-03-29T19:06:09.176Z,99374.56
2023-03-29T19:08:39.798Z,99364.28
2023-03-29T19:11:09.914Z,99376.44
2023-03-29T19:13:39.231Z,99377.38
2023-03-29T19:16:08.150Z,99385.22
2023-03-29T19:18:36.813Z,99389.63
2023-03-29T19:21:05.233Z,99387.09
2023-03-29T19:23:33.504Z,99382.84
2023-03-29T19:26:04.075Z,99391.50
2023-03-29T19:28:32.833Z,99382.06
2023-03-29T19:31:03.286Z,99376.09
2023-03-29T19:33:31.686Z,99380.47
2023-03-29T19:35:59.946Z,99370.16
2023-03-29T19:38:28.187Z,99370.16
2023-03-29T19:40:56.744Z,99361.50
2023-03-29T19:43:25.264Z,99364.13
2023-03-29T19:45:53.389Z,99365.03
2023-03-29T19:48:24.358Z,99357.28
2023-03-29T19:50:53.116Z,99373.69
2023-03-29T19:53:21.341Z,99366.84
2023-03-29T19:55:50.133Z,99366.88
2023-03-29T19:58:18.382Z,99364.31
2023-03-29T20:00:47.082Z,99370.41
2023-03-29T20:03:15.907Z,99365.28
2023-03-29T20:05:45.578Z,99370.50
2023-03-29T20:08:14.117Z,99374.00
2023-03-29T20:10:42.592Z,99374.03
2023-03-29T20:13:10.891Z,99378.41
2023-03-29T20:15:41.513Z,99375.81
2023-03-29T20:18:09.599Z,99371.56
2023-03-29T20:20:37.750Z,99363.00
2023-03-29T20:23:07.292Z,99368.22
2023-03-29T20:25:36.361Z,99365.66
2023-03-29T20:28:06.705Z,99364.84
2023-03-29T20:30:35.211Z,99365.72
2023-03-29T20:33:04.801Z,99361.44
2023-03-29T20:35:33.308Z,99360.66
2023-03-29T20:38:01.460Z,99364.16
2023-03-29T20:40:31.768Z,99364.19
2023-03-29T20:43:02.946Z,99350.47
2023-03-29T20:45:35.117Z,99359.97
2023-03-29T20:48:11.948Z,99362.59
2023-03-29T20:50:40.377Z,99357.44
2023-03-29T20:53:09.595Z,99362.59
2023-03-29T20:55:39.335Z,99354.84
2023-03-29T20:58:08.005Z,99356.59
2023-03-29T21:00:40.541Z,99360.06
2023-03-29T21:03:09.681Z,99362.69
2023-03-29T21:05:39.524Z,99361.84
2023-03-29T21:08:23.918Z,99361.00
2023-03-29T21:10:53.374Z,99350.75
2023-03-29T21:13:21.696Z,99350.78
2023-03-29T21:15:52.386Z,99349.97
2023-03-29T21:18:21.509Z,99353.44
2023-03-29T21:20:49.754Z,99357.75
2023-03-29T21:23:18.242Z,99353.44
2023-03-29T21:25:46.762Z,99349.16
2023-03-29T21:28:31.838Z,99347.38
2023-03-29T21:31:00.007Z,99348.25
2023-03-29T21:33:28.165Z,99343.94
2023-03-29T21:35:56.282Z,99345.66
2023-03-29T21:38:24.333Z,99347.38
2023-03-29T21:40:52.448Z,99349.94
2023-03-29T21:43:22.224Z,99356.78
2023-03-29T21:45:50.438Z,99357.63
2023-03-29T21:48:19.110Z,99359.34
2023-03-29T21:50:50.049Z,99358.47
2023-03-29T21:53:18.517Z,99362.78
2023-03-29T21:55:49.986Z,99358.47
2023-03-29T21:58:18.985Z,99360.22
2023-03-29T22:00:49.438Z,99358.53
2023-03-29T22:03:18.383Z,99363.69
2023-03-29T22:05:57.594Z,99357.69
2023-03-29T22:08:26.508Z,99362.84
2023-03-29T22:10:58.289Z,99363.75
2023-03-29T22:13:29.022Z,99364.59
2023-03-29T22:16:00.431Z,99365.47
2023-03-29T22:18:42.296Z,99368.09
2023-03-29T22:21:13.306Z,99361.25
2023-03-29T22:23:42.333Z,99365.53
2023-03-29T22:26:12.621Z,99369.00
2023-03-29T22:28:41.936Z,99366.38
2023-03-29T22:31:13.686Z,99371.53
2023-03-29T22:33:42.675Z,99368.94
2023-03-29T22:36:16.084Z,99367.19
2023-03-29T22:38:44.606Z,99368.03
2023-03-29T22:41:12.925Z,99367.97
2023-03-29T22:43:41.616Z,99366.25
2023-03-29T22:46:13.333Z,99367.94
2023-03-29T22:48:41.850Z,99367.97
2023-03-29T22:51:10.220Z,99374.81
2023-03-29T22:53:38.821Z,99375.66
2023-03-29T22:56:09.466Z,99378.25
2023-03-29T22:58:38.144Z,99373.94
2023-03-29T23:01:07.430Z,99380.81
2023-03-29T23:03:38.028Z,99383.38
2023-03-29T23:06:08.083Z,99388.53
2023-03-29T23:08:36.478Z,99392.88
2023-03-29T23:11:05.805Z,99380.91
2023-03-29T23:13:35.848Z,99389.53
2023-03-29T23:16:04.961Z,99397.28
2023-03-29T23:18:34.925Z,99390.41
2023-03-29T23:21:06.791Z,99389.56
2023-03-29T23:23:35.301Z,99383.53
2023-03-29T23:26:04.050Z,99393.03
2023-03-29T23:28:34.523Z,99398.19
2023-03-29T23:31:05.144Z,99398.19
2023-03-29T23:33:35.782Z,99399.06
2023-03-29T23:36:07.688Z,99406.81
2023-03-29T23:38:38.874Z,99405.13
2023-03-29T23:41:10.921Z,99406.03
2023-03-29T23:43:41.623Z,99403.47
2023-03-29T23:46:13.236Z,99411.22
2023-03-29T23:48:41.670Z,99418.94
2023-03-29T23:51:12.000Z,99421.56
2023-03-29T23:53:40.293Z,99423.31
2023-03-29T23:56:09.368Z,99426.72
2023-03-29T23:58:39.145Z,99426.72
